createdAt,value
2017-08-13T00:00:45.846Z,1010.1
2017-08-13T00:01:47.254Z,1010.1
2017-08-13T00:02:48.656Z,1010.1
2017-08-13T00:03:50.170Z,1010.1
2017-08-13T00:04:51.572Z,1010.2
2017-08-13T00:05:52.978Z,1010.2
2017-08-13T00:06:54.488Z,1010.2
2017-08-13T00:07:55.894Z,1010.2
2017-08-13T00:08:57.297Z,1010.3
2017-08-13T00:09:58.811Z,1010.3
2017-08-13T00:11:00.211Z,1010.3
2017-08-13T00:12:01.900Z,1010.3
2017-08-13T00:13:03.329Z,1010.3
2017-08-13T00:14:04.732Z,1010.4
2017-08-13T00:15:06.420Z,1010.4
2017-08-13T00:16:07.828Z,1010.4
2017-08-13T00:17:09.229Z,1010.4
2017-08-13T00:18:10.742Z,1010.4
2017-08-13T00:19:12.146Z,1010.4
2017-08-13T00:20:13.829Z,1010.5
2017-08-13T00:21:15.232Z,1010.5
2017-08-13T00:22:16.912Z,1010.5
2017-08-13T00:23:18.318Z,1010.5
2017-08-13T00:24:19.723Z,1010.5
2017-08-13T00:25:21.249Z,1010.5
2017-08-13T00:26:22.649Z,1010.5
2017-08-13T00:27:24.051Z,1010.6
2017-08-13T00:28:25.562Z,1010.5
2017-08-13T00:29:26.961Z,1010.6
2017-08-13T00:30:28.640Z,1010.5
2017-08-13T00:31:30.043Z,1010.5
2017-08-13T00:32:31.725Z,1010.6
2017-08-13T00:33:33.130Z,1010.5
2017-08-13T00:34:34.811Z,1010.5
2017-08-13T00:35:36.221Z,1010.6
2017-08-13T00:36:37.898Z,1010.5
2017-08-13T00:37:39.314Z,1010.6
2017-08-13T00:38:40.982Z,1010.6
2017-08-13T00:39:42.384Z,1010.6
2017-08-13T00:40:43.787Z,1010.6
2017-08-13T00:41:45.303Z,1010.6
2017-08-13T00:42:46.706Z,1010.6
2017-08-13T00:43:48.111Z,1010.6
2017-08-13T00:44:49.625Z,1010.6
2017-08-13T00:45:51.077Z,1010.6
2017-08-13T00:46:52.715Z,1010.7
2017-08-13T00:47:54.120Z,1010.6
2017-08-13T00:48:55.796Z,1010.7
2017-08-13T00:49:57.199Z,1010.7
2017-08-13T00:50:58.620Z,1010.7
2017-08-13T00:52:00.116Z,1010.7
2017-08-13T00:53:01.517Z,1010.7
2017-08-13T00:54:02.927Z,1010.7
2017-08-13T00:55:04.438Z,1010.7
2017-08-13T00:56:05.845Z,1010.8
2017-08-13T00:57:07.528Z,1010.8
2017-08-13T00:58:08.933Z,1010.7
2017-08-13T00:59:10.624Z,1010.8
2017-08-13T01:00:12.024Z,1010.8
2017-08-13T01:01:13.693Z,1010.7
2017-08-13T01:02:15.098Z,1010.7
2017-08-13T01:03:16.780Z,1010.7
2017-08-13T01:04:18.189Z,1010.8
2017-08-13T01:05:19.865Z,1010.7
2017-08-13T01:06:21.283Z,1010.8
2017-08-13T01:07:22.950Z,1010.8
2017-08-13T01:08:24.352Z,1010.8
2017-08-13T01:09:25.754Z,1010.8
2017-08-13T01:10:27.265Z,1010.8
2017-08-13T01:11:28.677Z,1010.8
2017-08-13T01:12:30.079Z,1010.9
2017-08-13T01:13:31.602Z,1010.8
2017-08-13T01:14:33.005Z,1010.9
2017-08-13T01:15:34.418Z,1010.8
2017-08-13T01:16:35.913Z,1010.9
2017-08-13T01:17:37.317Z,1010.8
2017-08-13T01:18:38.999Z,1010.8
2017-08-13T01:19:40.405Z,1010.8
2017-08-13T01:20:42.083Z,1010.8
2017-08-13T01:21:43.487Z,1010.8
2017-08-13T01:22:45.170Z,1010.8
2017-08-13T01:23:46.574Z,1010.8
2017-08-13T01:24:47.992Z,1010.8
2017-08-13T01:25:49.489Z,1010.7
2017-08-13T01:26:50.907Z,1010.8
2017-08-13T01:27:52.309Z,1010.7
2017-08-13T01:28:53.813Z,1010.7
2017-08-13T01:29:55.221Z,1010.7
2017-08-13T01:30:56.619Z,1010.6
2017-08-13T01:31:58.132Z,1010.6
2017-08-13T01:32:59.537Z,1010.6
2017-08-13T01:34:00.942Z,1010.6
2017-08-13T01:35:02.453Z,1010.5
2017-08-13T01:36:03.854Z,1010.4
2017-08-13T01:37:05.259Z,1010.4
2017-08-13T01:38:06.777Z,1010.4
2017-08-13T01:39:08.178Z,1010.4
2017-08-13T01:40:09.609Z,1010.4
2017-08-13T01:41:11.094Z,1010.3
2017-08-13T01:42:12.498Z,1010.3
2017-08-13T01:43:13.976Z,1010.3
2017-08-13T01:44:15.379Z,1010.3
2017-08-13T01:45:16.790Z,1010.3
2017-08-13T01:46:18.298Z,1010.3
2017-08-13T01:47:19.709Z,1010.3
2017-08-13T01:48:21.118Z,1010.3
2017-08-13T01:49:22.618Z,1010.3
2017-08-13T01:50:24.020Z,1010.3
2017-08-13T01:51:25.422Z,1010.3
2017-08-13T01:52:26.944Z,1010.3
2017-08-13T01:53:28.342Z,1010.3
2017-08-13T01:54:29.746Z,1010.3
2017-08-13T01:55:31.259Z,1010.3
2017-08-13T01:56:32.679Z,1010.3
2017-08-13T01:57:34.082Z,1010.2
2017-08-13T01:58:35.582Z,1010.2
2017-08-13T01:59:36.993Z,1010.2
2017-08-13T02:00:38.399Z,1010.1
2017-08-13T02:01:39.901Z,1010.1
2017-08-13T02:02:41.307Z,1010.2
2017-08-13T02:03:42.716Z,1010.2
2017-08-13T02:04:44.222Z,1010.1
2017-08-13T02:05:45.654Z,1010.2
2017-08-13T02:06:47.062Z,1010.2
2017-08-13T02:07:48.546Z,1010.2
2017-08-13T02:08:49.950Z,1010.3
2017-08-13T02:09:51.356Z,1010.2
2017-08-13T02:10:52.864Z,1010.2
2017-08-13T02:11:54.267Z,1010.3
2017-08-13T02:12:55.668Z,1010.3
2017-08-13T02:13:57.185Z,1010.2
2017-08-13T02:14:58.590Z,1010.3
2017-08-13T02:16:00.002Z,1010.4
2017-08-13T02:17:01.509Z,1010.3
2017-08-13T02:18:02.914Z,1010.3
2017-08-13T02:19:04.387Z,1010.3
2017-08-13T02:20:05.791Z,1010.4
2017-08-13T02:21:07.217Z,1010.4
2017-08-13T02:22:08.708Z,1010.4
2017-08-13T02:23:10.113Z,1010.4
2017-08-13T02:24:11.532Z,1010.4
2017-08-13T02:25:13.028Z,1010.4
2017-08-13T02:26:14.432Z,1010.4
2017-08-13T02:27:15.916Z,1010.5
2017-08-13T02:28:17.318Z,1010.5
2017-08-13T02:29:18.797Z,1010.5
2017-08-13T02:30:20.203Z,1010.5
2017-08-13T02:31:21.610Z,1010.5
2017-08-13T02:32:23.116Z,1010.5
2017-08-13T02:33:24.518Z,1010.6
2017-08-13T02:34:25.922Z,1010.6
2017-08-13T02:35:27.431Z,1010.6
2017-08-13T02:36:28.834Z,1010.6
2017-08-13T02:37:30.264Z,1010.6
2017-08-13T02:38:31.752Z,1010.7
2017-08-13T02:39:33.176Z,1010.6
2017-08-13T02:40:34.579Z,1010.6
2017-08-13T02:41:36.075Z,1010.6
2017-08-13T02:42:37.493Z,1010.7
2017-08-13T02:43:38.909Z,1010.7
2017-08-13T02:44:40.394Z,1010.7
2017-08-13T02:45:41.797Z,1010.7
2017-08-13T02:46:43.211Z,1010.7
2017-08-13T02:47:44.665Z,1010.7
2017-08-13T02:48:46.077Z,1010.7
2017-08-13T02:49:47.469Z,1010.7
2017-08-13T02:50:49.037Z,1010.7
2017-08-13T02:51:50.439Z,1010.7
2017-08-13T02:52:51.867Z,1010.7
2017-08-13T02:53:53.360Z,1010.7
2017-08-13T02:54:54.760Z,1010.7
2017-08-13T02:55:56.194Z,1010.6
2017-08-13T02:56:57.684Z,1010.6
2017-08-13T02:57:59.087Z,1010.6
2017-08-13T02:59:00.494Z,1010.6
2017-08-13T03:00:01.999Z,1010.6
2017-08-13T03:01:03.406Z,1010.6
2017-08-13T03:02:04.810Z,1010.5
2017-08-13T03:03:06.319Z,1010.5
2017-08-13T03:04:07.736Z,1010.5
2017-08-13T03:05:09.407Z,1010.5
2017-08-13T03:06:10.811Z,1010.5
2017-08-13T03:07:12.286Z,1010.4
2017-08-13T03:08:13.691Z,1010.4
2017-08-13T03:09:15.168Z,1010.4
2017-08-13T03:10:16.567Z,1010.4
2017-08-13T03:11:18.050Z,1010.4
2017-08-13T03:12:19.452Z,1010.3
2017-08-13T03:13:20.928Z,1010.3
2017-08-13T03:14:22.334Z,1010.3
2017-08-13T03:15:23.809Z,1010.3
2017-08-13T03:16:25.210Z,1010.3
2017-08-13T03:17:26.690Z,1010.3
2017-08-13T03:18:28.091Z,1010.3
2017-08-13T03:19:29.571Z,1010.3
2017-08-13T03:20:31.005Z,1010.3
2017-08-13T03:21:32.406Z,1010.3
2017-08-13T03:22:33.892Z,1010.3
2017-08-13T03:23:35.298Z,1010.3
2017-08-13T03:24:36.696Z,1010.3
2017-08-13T03:25:38.216Z,1010.3
2017-08-13T03:26:39.620Z,1010.3
2017-08-13T03:27:41.095Z,1010.3
2017-08-13T03:28:42.507Z,1010.3
2017-08-13T03:29:43.977Z,1010.4
2017-08-13T03:30:45.376Z,1010.3
2017-08-13T03:31:46.855Z,1010.3
2017-08-13T03:32:48.277Z,1010.4
2017-08-13T03:33:49.939Z,1010.4
2017-08-13T03:34:51.347Z,1010.4
2017-08-13T03:35:52.820Z,1010.4
2017-08-13T03:36:54.226Z,1010.4
2017-08-13T03:37:55.628Z,1010.4
2017-08-13T03:38:57.141Z,1010.2
2017-08-13T03:39:58.543Z,1010.2
2017-08-13T03:40:59.992Z,1010.2
2017-08-13T03:42:01.462Z,1010.2
2017-08-13T03:43:02.881Z,1010.1
2017-08-13T03:44:04.285Z,1010.1
2017-08-13T03:45:05.783Z,1010.0
2017-08-13T03:46:07.186Z,1010.0
2017-08-13T03:47:08.590Z,1010.0
2017-08-13T03:48:10.105Z,1009.9
2017-08-13T03:49:11.508Z,1009.9
2017-08-13T03:50:12.990Z,1009.8
2017-08-13T03:51:14.418Z,1009.8
2017-08-13T03:52:15.834Z,1009.7
2017-08-13T03:53:17.313Z,1009.6
2017-08-13T03:54:18.715Z,1009.5
2017-08-13T03:55:20.119Z,1009.4
2017-08-13T03:56:21.630Z,1009.4
2017-08-13T03:57:23.033Z,1009.3
2017-08-13T03:58:25.532Z,1009.2
2017-08-13T03:59:26.933Z,1009.2
2017-08-13T04:00:28.413Z,1009.1
2017-08-13T04:01:29.815Z,1009.0
2017-08-13T04:02:31.297Z,1009.0
2017-08-13T04:03:32.699Z,1008.9
2017-08-13T04:04:34.175Z,1008.9
2017-08-13T04:05:35.583Z,1008.8
2017-08-13T04:06:37.054Z,1008.8
2017-08-13T04:07:38.470Z,1008.7
2017-08-13T04:08:39.936Z,1008.8
2017-08-13T04:09:41.340Z,1008.7
2017-08-13T04:10:42.817Z,1008.7
2017-08-13T04:11:44.226Z,1008.6
2017-08-13T04:12:45.699Z,1008.6
2017-08-13T04:13:47.102Z,1008.6
2017-08-13T04:14:48.579Z,1008.6
2017-08-13T04:15:49.981Z,1008.5
2017-08-13T04:16:51.385Z,1008.5
2017-08-13T04:17:52.898Z,1008.5
2017-08-13T04:18:54.305Z,1008.5
2017-08-13T04:19:55.711Z,1008.5
2017-08-13T04:20:57.225Z,1008.4
2017-08-13T04:21:58.626Z,1008.5
2017-08-13T04:23:00.033Z,1008.5
2017-08-13T04:24:01.541Z,1008.5
2017-08-13T04:25:02.946Z,1008.4
2017-08-13T04:26:04.363Z,1008.4
2017-08-13T04:27:05.865Z,1008.4
2017-08-13T04:28:07.265Z,1008.4
2017-08-13T04:29:08.744Z,1008.3
2017-08-13T04:30:10.149Z,1008.3
2017-08-13T04:31:11.624Z,1008.3
2017-08-13T04:32:13.051Z,1008.3
2017-08-13T04:33:14.457Z,1008.3
2017-08-13T04:34:15.945Z,1008.3
2017-08-13T04:35:17.351Z,1008.3
2017-08-13T04:36:18.755Z,1008.3
2017-08-13T04:37:20.265Z,1008.2
2017-08-13T04:38:21.691Z,1008.3
2017-08-13T04:39:23.036Z,1008.3
2017-08-13T04:40:24.590Z,1008.2
2017-08-13T04:41:25.998Z,1008.2
2017-08-13T04:42:27.402Z,1008.2
2017-08-13T04:43:28.911Z,1008.2
2017-08-13T04:44:30.322Z,1008.3
2017-08-13T04:45:31.752Z,1008.3
2017-08-13T04:46:33.241Z,1008.3
2017-08-13T04:47:34.650Z,1008.3
2017-08-13T04:48:36.067Z,1008.4
2017-08-13T04:49:37.554Z,1008.5
2017-08-13T04:50:38.960Z,1008.5
2017-08-13T04:51:40.368Z,1008.6
2017-08-13T04:52:41.848Z,1008.6
2017-08-13T04:53:43.255Z,1008.7
2017-08-13T04:54:44.754Z,1008.8
2017-08-13T04:55:46.164Z,1008.8
2017-08-13T04:56:47.634Z,1008.9
2017-08-13T04:57:49.039Z,1009.0
2017-08-13T04:58:50.514Z,1009.0
2017-08-13T04:59:51.940Z,1009.1
2017-08-13T05:00:53.395Z,1009.2
2017-08-13T05:01:54.807Z,1009.3
2017-08-13T05:02:56.227Z,1009.5
2017-08-13T05:03:57.717Z,1009.6
2017-08-13T05:04:59.124Z,1009.7
2017-08-13T05:06:00.530Z,1009.7
2017-08-13T05:07:02.036Z,1009.8
2017-08-13T05:08:03.446Z,1010.0
2017-08-13T05:09:04.851Z,1010.0
2017-08-13T05:10:06.357Z,1010.2
2017-08-13T05:11:07.779Z,1010.3
2017-08-13T05:12:09.216Z,1010.4
2017-08-13T05:13:10.678Z,1010.5
2017-08-13T05:14:12.088Z,1010.5
2017-08-13T05:15:13.527Z,1010.6
2017-08-13T05:16:14.999Z,1010.7
2017-08-13T05:17:16.410Z,1010.7
2017-08-13T05:18:17.814Z,1010.9
2017-08-13T05:19:19.322Z,1011.0
2017-08-13T05:20:20.736Z,1011.1
2017-08-13T05:21:22.206Z,1011.2
2017-08-13T05:22:23.617Z,1011.3
2017-08-13T05:23:25.024Z,1011.3
2017-08-13T05:24:26.520Z,1011.5
2017-08-13T05:25:27.925Z,1011.5
2017-08-13T05:26:29.327Z,1011.5
2017-08-13T05:27:30.842Z,1011.6
2017-08-13T05:28:32.250Z,1011.6
2017-08-13T05:29:33.727Z,1011.6
2017-08-13T05:30:35.132Z,1011.7
2017-08-13T05:31:36.601Z,1011.8
2017-08-13T05:32:38.008Z,1011.8
2017-08-13T05:33:39.412Z,1011.9
2017-08-13T05:34:40.925Z,1012.0
2017-08-13T05:35:42.332Z,1012.1
2017-08-13T05:36:43.757Z,1012.2
2017-08-13T05:37:45.246Z,1012.3
2017-08-13T05:38:46.655Z,1012.4
2017-08-13T05:39:48.064Z,1012.5
2017-08-13T05:40:49.568Z,1012.6
2017-08-13T05:41:50.972Z,1012.7
2017-08-13T05:42:52.379Z,1012.8
2017-08-13T05:43:53.885Z,1012.8
2017-08-13T05:44:55.295Z,1012.8
2017-08-13T05:45:56.767Z,1012.8
2017-08-13T05:46:58.174Z,1012.8
2017-08-13T05:47:59.753Z,1012.9
2017-08-13T05:49:01.200Z,1013.1
2017-08-13T05:50:02.736Z,1013.1
2017-08-13T05:51:04.144Z,1013.2
2017-08-13T05:52:05.620Z,1013.3
2017-08-13T05:53:07.029Z,1013.3
2017-08-13T05:54:08.436Z,1013.4
2017-08-13T05:55:09.938Z,1013.5
2017-08-13T05:56:11.347Z,1013.6
2017-08-13T05:57:12.756Z,1013.6
2017-08-13T05:58:14.260Z,1013.7
2017-08-13T05:59:15.669Z,1013.8
2017-08-13T06:00:17.140Z,1013.9
2017-08-13T06:01:18.562Z,1014.0
2017-08-13T06:02:20.019Z,1014.0
2017-08-13T06:03:21.426Z,1014.1
2017-08-13T06:04:22.833Z,1014.2
2017-08-13T06:05:24.340Z,1014.3
2017-08-13T06:06:25.749Z,1014.3
2017-08-13T06:07:27.158Z,1014.4
2017-08-13T06:08:28.764Z,1014.4
2017-08-13T06:09:30.171Z,1014.5
2017-08-13T06:10:31.574Z,1014.6
2017-08-13T06:11:33.195Z,1014.7
2017-08-13T06:12:34.602Z,1014.7
2017-08-13T06:13:36.010Z,1014.7
2017-08-13T06:14:37.506Z,1014.8
2017-08-13T06:15:38.912Z,1014.8
2017-08-13T06:16:40.494Z,1014.7
2017-08-13T06:17:41.898Z,1014.6
2017-08-13T06:18:43.308Z,1014.5
2017-08-13T06:19:45.014Z,1014.4
2017-08-13T06:20:46.427Z,1014.3
2017-08-13T06:21:47.838Z,1014.2
2017-08-13T06:22:49.555Z,1014.2
2017-08-13T06:23:50.972Z,1014.1
2017-08-13T06:24:52.379Z,1014.1
2017-08-13T06:25:54.067Z,1014.1
2017-08-13T06:26:55.482Z,1014.0
2017-08-13T06:27:56.889Z,1014.2
2017-08-13T06:28:58.594Z,1014.2
2017-08-13T06:30:00.001Z,1014.3
2017-08-13T06:31:01.678Z,1014.3
2017-08-13T06:32:03.081Z,1014.2
2017-08-13T06:33:04.562Z,1014.2
2017-08-13T06:34:05.969Z,1014.3
2017-08-13T06:35:07.654Z,1014.4
2017-08-13T06:36:09.058Z,1014.6
2017-08-13T06:37:10.735Z,1014.7
2017-08-13T06:38:12.143Z,1014.7
2017-08-13T06:39:13.818Z,1014.8
2017-08-13T06:40:15.227Z,1014.9
2017-08-13T06:41:16.903Z,1015.0
2017-08-13T06:42:18.318Z,1015.1
2017-08-13T06:43:19.987Z,1015.3
2017-08-13T06:44:21.394Z,1015.4
2017-08-13T06:45:23.085Z,1015.6
2017-08-13T06:46:24.491Z,1015.7
2017-08-13T06:47:26.162Z,1015.9
2017-08-13T06:48:27.576Z,1015.9
2017-08-13T06:49:28.985Z,1016.1
2017-08-13T06:50:30.685Z,1016.2
2017-08-13T06:51:32.115Z,1016.3
2017-08-13T06:52:33.539Z,1016.5
2017-08-13T06:53:35.214Z,1016.7
2017-08-13T06:54:36.619Z,1016.7
2017-08-13T06:55:38.034Z,1016.8
2017-08-13T06:56:39.737Z,1017.0
2017-08-13T06:57:41.187Z,1017.2
2017-08-13T06:58:42.575Z,1017.3
2017-08-13T06:59:44.265Z,1017.3
2017-08-13T07:00:45.670Z,1017.6
2017-08-13T07:01:47.082Z,1017.7
2017-08-13T07:02:48.788Z,1017.6
2017-08-13T07:03:50.201Z,1017.6
2017-08-13T07:04:51.619Z,1017.6
2017-08-13T07:05:53.316Z,1017.6
2017-08-13T07:06:54.748Z,1017.5
2017-08-13T07:07:56.195Z,1017.4
2017-08-13T07:08:57.613Z,1017.4
2017-08-13T07:09:59.285Z,1017.4
2017-08-13T07:11:00.724Z,1017.5
2017-08-13T07:12:02.406Z,1017.7
2017-08-13T07:13:03.780Z,1017.9
2017-08-13T07:14:05.458Z,1018.0
2017-08-13T07:15:06.864Z,1018.1
2017-08-13T07:16:08.538Z,1018.1
2017-08-13T07:17:09.946Z,1018.1
2017-08-13T07:18:11.622Z,1018.0
2017-08-13T07:19:13.035Z,1018.1
2017-08-13T07:20:14.715Z,1018.5
2017-08-13T07:21:16.117Z,1018.9
2017-08-13T07:22:17.816Z,1019.3
2017-08-13T07:23:19.222Z,1019.7
2017-08-13T07:24:20.888Z,1020.0
2017-08-13T07:25:22.295Z,1020.3
2017-08-13T07:26:23.969Z,1020.7
2017-08-13T07:27:25.379Z,1021.1
2017-08-13T07:28:27.067Z,1021.6
2017-08-13T07:29:28.479Z,1021.9
2017-08-13T07:30:29.888Z,1022.3
2017-08-13T07:31:31.483Z,1022.7
2017-08-13T07:32:32.896Z,1023.1
2017-08-13T07:33:34.307Z,1023.5
2017-08-13T07:34:35.897Z,1024.0
2017-08-13T07:35:37.307Z,1024.5
2017-08-13T07:36:38.983Z,1024.9
2017-08-13T07:37:40.391Z,1025.3
2017-08-13T07:38:42.068Z,1025.6
2017-08-13T07:39:43.481Z,1025.9
2017-08-13T07:40:45.154Z,1026.1
2017-08-13T07:41:46.942Z,1026.4
2017-08-13T07:42:48.650Z,1026.1
2017-08-13T07:43:50.055Z,1026.0
2017-08-13T07:44:51.463Z,1025.7
2017-08-13T07:45:52.969Z,1025.8
2017-08-13T07:46:54.379Z,1025.4
2017-08-13T07:47:55.808Z,1025.0
2017-08-13T07:48:57.523Z,1024.7
2017-08-13T07:49:58.904Z,1024.4
2017-08-13T07:51:00.491Z,1024.6
2017-08-13T07:52:01.954Z,1024.3
2017-08-13T07:53:03.681Z,1024.6
2017-08-13T07:54:05.091Z,1024.8
2017-08-13T07:55:06.505Z,1025.0
2017-08-13T07:56:08.193Z,1025.3
2017-08-13T07:57:09.602Z,1025.6
2017-08-13T07:58:11.012Z,1025.9
2017-08-13T07:59:12.727Z,1026.3
2017-08-13T08:00:14.134Z,1026.1
2017-08-13T08:01:15.805Z,1026.0
2017-08-13T08:02:17.212Z,1026.0
2017-08-13T08:03:18.890Z,1025.9
2017-08-13T08:04:20.294Z,1025.8
2017-08-13T08:05:21.704Z,1025.7
2017-08-13T08:06:23.430Z,1025.5
2017-08-13T08:07:24.837Z,1025.3
2017-08-13T08:08:26.247Z,1025.0
2017-08-13T08:09:27.942Z,1024.8
2017-08-13T08:10:29.348Z,1024.5
2017-08-13T08:11:31.025Z,1024.3
2017-08-13T08:12:32.433Z,1024.0
2017-08-13T08:13:34.109Z,1024.2
2017-08-13T08:14:35.521Z,1024.6
2017-08-13T08:15:37.216Z,1025.0
2017-08-13T08:16:38.634Z,1025.4
2017-08-13T08:17:40.305Z,1025.8
2017-08-13T08:18:41.710Z,1026.1
2017-08-13T08:19:43.121Z,1026.6
2017-08-13T08:20:44.807Z,1027.0
2017-08-13T08:21:46.215Z,1027.4
2017-08-13T08:22:47.647Z,1027.8
2017-08-13T08:23:49.334Z,1028.2
2017-08-13T08:24:50.745Z,1028.5
2017-08-13T08:25:52.157Z,1028.9
2017-08-13T08:26:53.871Z,1029.2
2017-08-13T08:27:55.281Z,1029.6
2017-08-13T08:28:56.944Z,1030.0
2017-08-13T08:29:58.355Z,1030.5
2017-08-13T08:30:59.776Z,1030.9
2017-08-13T08:32:01.468Z,1031.3
2017-08-13T08:33:02.906Z,1031.7
2017-08-13T08:34:04.315Z,1032.1
2017-08-13T08:35:05.993Z,1032.6
2017-08-13T08:36:07.436Z,1033.2
2017-08-13T08:37:09.083Z,1033.8
2017-08-13T08:38:10.494Z,1034.5
2017-08-13T08:39:12.188Z,1034.6
2017-08-13T08:40:13.596Z,1034.2
2017-08-13T08:41:15.006Z,1034.1
2017-08-13T08:42:16.692Z,1034.0
2017-08-13T08:43:18.107Z,1034.5
2017-08-13T08:44:19.516Z,1034.3
2017-08-13T08:45:21.219Z,1033.5
2017-08-13T08:46:22.626Z,1032.8
2017-08-13T08:47:24.343Z,1032.2
2017-08-13T08:48:25.761Z,1031.4
2017-08-13T08:49:27.388Z,1030.8
2017-08-13T08:50:28.798Z,1030.2
2017-08-13T08:51:30.211Z,1029.6
2017-08-13T08:52:31.922Z,1029.9
2017-08-13T08:53:33.334Z,1031.0
2017-08-13T08:54:34.740Z,1031.9
2017-08-13T08:55:36.440Z,1032.9
2017-08-13T08:56:37.852Z,1033.8
2017-08-13T08:57:39.264Z,1034.7
2017-08-13T08:58:40.994Z,1035.4
2017-08-13T08:59:42.410Z,1036.1
2017-08-13T09:00:43.818Z,1036.1
2017-08-13T09:01:45.532Z,1035.1
2017-08-13T09:02:46.950Z,1034.4
2017-08-13T09:03:48.359Z,1033.8
2017-08-13T09:04:50.020Z,1033.4
2017-08-13T09:05:51.432Z,1033.3
2017-08-13T09:06:52.859Z,1033.1
2017-08-13T09:07:54.565Z,1032.9
2017-08-13T09:08:55.978Z,1033.1
2017-08-13T09:09:57.392Z,1033.0
2017-08-13T09:10:59.070Z,1032.8
2017-08-13T09:12:00.480Z,1032.6
2017-08-13T09:13:02.093Z,1032.4
2017-08-13T09:14:03.509Z,1031.9
2017-08-13T09:15:05.046Z,1031.3
2017-08-13T09:16:06.448Z,1030.8
2017-08-13T09:17:08.121Z,1030.4
2017-08-13T09:18:09.534Z,1029.7
2017-08-13T09:19:11.206Z,1029.1
2017-08-13T09:20:12.622Z,1028.6
2017-08-13T09:21:14.294Z,1028.0
2017-08-13T09:22:15.698Z,1027.5
2017-08-13T09:23:17.381Z,1027.0
2017-08-13T09:24:18.786Z,1026.5
2017-08-13T09:25:20.464Z,1026.0
2017-08-13T09:26:21.873Z,1025.5
2017-08-13T09:27:23.946Z,1025.0
2017-08-13T09:28:25.393Z,1024.5
2017-08-13T09:29:27.044Z,1024.0
2017-08-13T09:30:28.450Z,1023.6
2017-08-13T09:31:30.132Z,1023.2
2017-08-13T09:32:31.543Z,1022.8
2017-08-13T09:33:33.213Z,1022.4
2017-08-13T09:34:34.628Z,1022.0
2017-08-13T09:35:36.304Z,1021.7
2017-08-13T09:36:37.706Z,1021.4
2017-08-13T09:37:39.394Z,1021.2
2017-08-13T09:38:40.803Z,1021.0
2017-08-13T09:39:42.469Z,1020.8
2017-08-13T09:40:43.900Z,1020.7
2017-08-13T09:41:45.335Z,1020.6
2017-08-13T09:42:46.995Z,1020.6
2017-08-13T09:43:48.403Z,1020.6
2017-08-13T09:44:49.816Z,1020.5
2017-08-13T09:45:51.253Z,1020.6
2017-08-13T09:46:52.673Z,1020.6
2017-08-13T09:47:54.083Z,1020.7
2017-08-13T09:48:55.573Z,1020.7
2017-08-13T09:49:56.986Z,1020.7
2017-08-13T09:50:58.403Z,1020.7
2017-08-13T09:51:59.898Z,1021.0
2017-08-13T09:53:01.311Z,1021.5
2017-08-13T09:54:02.777Z,1025.7
2017-08-13T09:55:04.187Z,1030.2
2017-08-13T09:56:05.707Z,1028.7
2017-08-13T09:57:07.124Z,1042.2
2017-08-13T09:58:08.745Z,1045.9
2017-08-13T09:59:10.154Z,1047.3
2017-08-13T10:00:11.623Z,1047.5
2017-08-13T10:01:13.041Z,1047.3
2017-08-13T10:02:14.450Z,1045.5
2017-08-13T10:03:15.945Z,1046.9
2017-08-13T10:04:17.359Z,1049.5
2017-08-13T10:05:18.768Z,1054.0
2017-08-13T10:06:20.277Z,1062.4
2017-08-13T10:07:21.678Z,1070.6
2017-08-13T10:08:23.149Z,1072.5
2017-08-13T10:09:24.566Z,1071.6
2017-08-13T10:10:26.042Z,1069.2
2017-08-13T10:11:27.493Z,1071.8
2017-08-13T10:12:28.918Z,1075.5
2017-08-13T10:13:30.378Z,1074.3
2017-08-13T10:14:31.792Z,1078.1
2017-08-13T10:15:33.206Z,1065.6
2017-08-13T10:16:34.673Z,1062.3
2017-08-13T10:17:36.086Z,1059.1
2017-08-13T10:18:37.567Z,1060.5
2017-08-13T10:19:38.987Z,1078.4
2017-08-13T10:20:40.448Z,1082.1
2017-08-13T10:21:41.879Z,1085.2
2017-08-13T10:22:43.316Z,1088.3
2017-08-13T10:23:44.758Z,1091.9
2017-08-13T10:24:47.423Z,1093.4
2017-08-13T10:25:48.837Z,1095.8
2017-08-13T10:26:50.363Z,1098.2
2017-08-13T10:27:51.793Z,1100.0
2017-08-13T10:28:53.440Z,1081.1
2017-08-13T10:29:54.926Z,1075.2
2017-08-13T10:30:56.541Z,1071.9
2017-08-13T10:31:57.959Z,1071.6
2017-08-13T10:32:59.412Z,1066.4
2017-08-13T10:34:00.830Z,1062.8
2017-08-13T10:35:02.501Z,1083.4
2017-08-13T10:36:03.919Z,1084.1
2017-08-13T10:37:05.585Z,1085.9
2017-08-13T10:38:07.038Z,1089.2
2017-08-13T10:39:08.669Z,1093.1
2017-08-13T10:40:10.090Z,1092.1
2017-08-13T10:41:11.772Z,1084.4
2017-08-13T10:42:13.186Z,1079.0
2017-08-13T10:43:14.846Z,1076.9
2017-08-13T10:44:16.265Z,1077.1
2017-08-13T10:45:17.929Z,1077.7
2017-08-13T10:46:19.347Z,1078.1
2017-08-13T10:47:21.019Z,1078.3
2017-08-13T10:48:22.432Z,1078.5
2017-08-13T10:49:24.099Z,1078.8
2017-08-13T10:50:25.515Z,1080.1
2017-08-13T10:51:27.213Z,1079.0
2017-08-13T10:52:28.631Z,1079.4
2017-08-13T10:53:30.270Z,1080.0
2017-08-13T10:54:31.695Z,1080.8
2017-08-13T10:55:33.356Z,1079.6
2017-08-13T10:56:34.778Z,1077.7
2017-08-13T10:57:36.441Z,1077.5
2017-08-13T10:58:37.886Z,1077.2
2017-08-13T10:59:39.528Z,1077.3
2017-08-13T11:00:40.952Z,1078.2
2017-08-13T11:01:42.409Z,1079.3
2017-08-13T11:02:43.828Z,1080.7
2017-08-13T11:03:45.495Z,1081.9
2017-08-13T11:04:46.913Z,1079.8
2017-08-13T11:05:48.576Z,1075.6
2017-08-13T11:06:49.999Z,1072.4
2017-08-13T11:07:51.457Z,1068.9
2017-08-13T11:08:52.877Z,1065.5
2017-08-13T11:09:54.549Z,1062.4
2017-08-13T11:10:55.963Z,1059.7
2017-08-13T11:11:57.670Z,1057.0
2017-08-13T11:12:59.083Z,1054.8
2017-08-13T11:14:00.714Z,1057.6
2017-08-13T11:15:02.135Z,1058.7
2017-08-13T11:16:03.800Z,1054.6
2017-08-13T11:17:05.214Z,1051.6
2017-08-13T11:18:06.905Z,1049.0
2017-08-13T11:19:08.319Z,1046.5
2017-08-13T11:20:09.970Z,1044.2
2017-08-13T11:21:11.384Z,1042.0
2017-08-13T11:22:12.802Z,1040.0
2017-08-13T11:23:14.293Z,1038.3
2017-08-13T11:24:15.703Z,1036.7
2017-08-13T11:25:17.132Z,1035.4
2017-08-13T11:26:18.535Z,1034.2
2017-08-13T11:27:20.052Z,1033.3
2017-08-13T11:28:21.469Z,1033.1
2017-08-13T11:29:22.880Z,1037.2
2017-08-13T11:30:24.376Z,1035.4
2017-08-13T11:31:25.789Z,1039.5
2017-08-13T11:32:27.225Z,1049.2
2017-08-13T11:33:28.900Z,1056.0
2017-08-13T11:34:30.316Z,1063.5
2017-08-13T11:35:31.759Z,1070.0
2017-08-13T11:36:33.426Z,1076.5
2017-08-13T11:37:34.868Z,1082.9
2017-08-13T11:38:36.295Z,1086.8
2017-08-13T11:39:37.951Z,1093.1
2017-08-13T11:40:39.374Z,1098.4
2017-08-13T11:41:40.800Z,1101.4
2017-08-13T11:42:42.272Z,1091.9
2017-08-13T11:43:43.690Z,1086.6
2017-08-13T11:44:45.356Z,1082.4
2017-08-13T11:45:46.769Z,1077.8
2017-08-13T11:46:48.443Z,1073.6
2017-08-13T11:47:49.861Z,1070.0
2017-08-13T11:48:51.291Z,1068.7
2017-08-13T11:49:52.768Z,1067.4
2017-08-13T11:50:54.182Z,1063.5
2017-08-13T11:51:55.602Z,1060.1
2017-08-13T11:52:58.036Z,1058.0
2017-08-13T11:53:59.465Z,1057.1
2017-08-13T11:55:00.884Z,1057.1
2017-08-13T11:56:02.437Z,1058.0
2017-08-13T11:57:03.856Z,1059.3
2017-08-13T11:58:05.272Z,1059.9
2017-08-13T11:59:06.757Z,1060.0
2017-08-13T12:00:08.172Z,1060.8
2017-08-13T12:01:09.837Z,1061.4
2017-08-13T12:02:11.256Z,1062.4
2017-08-13T12:03:12.672Z,1063.1
2017-08-13T12:04:14.159Z,1063.8
2017-08-13T12:05:15.578Z,1063.8
2017-08-13T12:06:17.000Z,1063.0
2017-08-13T12:07:18.479Z,1061.7
2017-08-13T12:08:19.895Z,1060.1
2017-08-13T12:09:21.311Z,1058.5
2017-08-13T12:10:22.800Z,1056.7
2017-08-13T12:11:24.219Z,1053.3
2017-08-13T12:12:25.636Z,1050.8
2017-08-13T12:13:27.142Z,1048.5
2017-08-13T12:14:28.555Z,1046.5
2017-08-13T12:15:29.968Z,1044.4
2017-08-13T12:16:31.645Z,1042.2
2017-08-13T12:17:33.062Z,1040.2
2017-08-13T12:18:34.482Z,1038.2
2017-08-13T12:19:35.966Z,1036.4
2017-08-13T12:20:37.417Z,1034.4
2017-08-13T12:21:39.051Z,1032.6
2017-08-13T12:22:40.462Z,1031.0
2017-08-13T12:23:41.876Z,1029.3
2017-08-13T12:24:43.373Z,1027.8
2017-08-13T12:25:44.785Z,1026.2
2017-08-13T12:26:46.214Z,1024.8
2017-08-13T12:27:47.708Z,1023.5
2017-08-13T12:28:49.124Z,1022.5
2017-08-13T12:29:50.780Z,1023.1
2017-08-13T12:30:52.209Z,1027.0
2017-08-13T12:31:53.662Z,1030.1
2017-08-13T12:32:55.077Z,1033.5
2017-08-13T12:33:56.510Z,1035.4
2017-08-13T12:34:57.984Z,1034.6
2017-08-13T12:35:59.399Z,1034.2
2017-08-13T12:37:00.820Z,1036.0
2017-08-13T12:38:02.306Z,1038.1
2017-08-13T12:39:03.720Z,1037.6
2017-08-13T12:40:05.182Z,1036.3
2017-08-13T12:41:06.597Z,1035.3
2017-08-13T12:42:08.084Z,1036.0
2017-08-13T12:43:09.493Z,1035.5
2017-08-13T12:44:10.914Z,1034.4
2017-08-13T12:45:12.387Z,1033.6
2017-08-13T12:46:13.804Z,1033.7
2017-08-13T12:47:15.221Z,1032.0